Thunder radar more information blitzortung!


Radar de pluja more information rain snow radar


Visita la nostra xarxa de llocs de meteo:

Template documentation
and downloads

And another site



No particular awareness of the weather is required.    There are no Weather-warnings

Pagina Historial Weather Underground text

Diari Resum Juliol 17, 2017 Unitats:  Tant    Imperial   Mètric
« Previous Dia
SegĂźent Dia »
Diari Setmana Mensual Anual Personalitzada
  Maxima: Minima: Media:
Temperatura: TemperatureC °F /  -17.8 °C 20.5 °F /  -6.4 °C 26.7 °F /  -2.9 °C
Punt de rosada: DewpointC °F /  -17.8 °C 11.6 °F /  -11.3 °C 14.6 °F /  -9.7 °C
Humitat: Humidity % 31 % 49 %
Wind Speed: WindSpeedKMH mph /  0 km/h - 9.6 mph /  15.4 km/h
RĂ fegues de vent: WindSpeedGustKMH mph /  0 km/h - -
Vent:- - ESE
Pression baro: PressurehPa in /  0 hPa 1014.8 in /  34361.1 hPa -
Precipitacions: 0.0 in /  0 mm    
Historical Graphs
 
 
Dades de taula per Juliol 17, 2017
Temps Temperatura Punt de rosada Pression baro Vent Wind Speed RĂ fegues de vent Humitat Rainfall Rate (Hourly)
TemperatureC °F /  -17.8 °C DewpointC °F /  -17.8 °C PressurehPa in /  0 hPa Calm     Humidity % HourlyPrecipMM in /  0 mm
00:00 21.7 °F /  -5.7 °C 16.7 °F /  -8.5 °C 1015.8 in /  34395 hPa Calm   3.2 mph /  5.1 km/h 73 % 0.0 in /  0 mm
00:02 23.2 °F /  -4.9 °C 16.0 °F /  -8.9 °C 1017.8 in /  34462.7 hPa WSW 5.0 mph /  8 km/h 5.0 mph /  8 km/h 64 % 0.0 in /  0 mm
00:07 23.2 °F /  -4.9 °C 16.3 °F /  -8.7 °C 1016.8 in /  34428.8 hPa WSW 3.9 mph /  6.3 km/h 3.9 mph /  6.3 km/h 65 % 0.0 in /  0 mm
00:10 21.6 °F /  -5.8 °C 16.6 °F /  -8.6 °C 1015.8 in /  34395 hPa Calm   3.2 mph /  5.1 km/h 73 % 0.0 in /  0 mm
00:20 21.5 °F /  -5.8 °C 16.4 °F /  -8.7 °C 1015.8 in /  34395 hPa SW 1.6 mph /  2.6 km/h 1.6 mph /  2.6 km/h 73 % 0.0 in /  0 mm
00:30 21.6 °F /  -5.8 °C 16.6 °F /  -8.6 °C 1016.8 in /  34428.8 hPa South 1.6 mph /  2.6 km/h 3.2 mph /  5.1 km/h 73 % 0.0 in /  0 mm
00:40 21.6 °F /  -5.8 °C 16.6 °F /  -8.6 °C 1016.8 in /  34428.8 hPa ENE 1.6 mph /  2.6 km/h 3.2 mph /  5.1 km/h 73 % 0.0 in /  0 mm
00:50 21.5 °F /  -5.8 °C 16.2 °F /  -8.8 °C 1016.8 in /  34428.8 hPa NE 1.6 mph /  2.6 km/h 3.2 mph /  5.1 km/h 72 % 0.0 in /  0 mm
01:00 21.4 °F /  -5.9 °C 15.9 °F /  -8.9 °C 1016.8 in /  34428.8 hPa NE 3.2 mph /  5.1 km/h 4.8 mph /  7.7 km/h 71 % 0.0 in /  0 mm
01:10 21.2 °F /  -6 °C 15.7 °F /  -9.1 °C 1016.8 in /  34428.8 hPa NNE 1.6 mph /  2.6 km/h 4.8 mph /  7.7 km/h 71 % 0.0 in /  0 mm
01:20 21.0 °F /  -6.1 °C 15.6 °F /  -9.1 °C 1016.8 in /  34428.8 hPa Calm   4.8 mph /  7.7 km/h 71 % 0.0 in /  0 mm
01:30 20.8 °F /  -6.2 °C 15.6 °F /  -9.1 °C 1016.8 in /  34428.8 hPa NNE 1.6 mph /  2.6 km/h 3.2 mph /  5.1 km/h 72 % 0.0 in /  0 mm
01:40 20.6 °F /  -6.3 °C 15.4 °F /  -9.2 °C 1016.8 in /  34428.8 hPa NE 1.6 mph /  2.6 km/h 3.2 mph /  5.1 km/h 72 % 0.0 in /  0 mm
01:50 20.6 °F /  -6.3 °C 15.4 °F /  -9.2 °C 1016.8 in /  34428.8 hPa NE 1.6 mph /  2.6 km/h 3.2 mph /  5.1 km/h 72 % 0.0 in /  0 mm
02:00 20.5 °F /  -6.4 °C 15.3 °F /  -9.3 °C 1017.8 in /  34462.7 hPa Calm   3.2 mph /  5.1 km/h 72 % 0.0 in /  0 mm
02:10 20.6 °F /  -6.3 °C 15.4 °F /  -9.2 °C 1017.8 in /  34462.7 hPa Calm   1.6 mph /  2.6 km/h 72 % 0.0 in /  0 mm
02:20 20.6 °F /  -6.3 °C 15.4 °F /  -9.2 °C 1017.8 in /  34462.7 hPa Calm   1.6 mph /  2.6 km/h 72 % 0.0 in /  0 mm
02:30 21.2 °F /  -6 °C 15.9 °F /  -8.9 °C 1017.8 in /  34462.7 hPa Calm     72 % 0.0 in /  0 mm
02:40 21.5 °F /  -5.8 °C 16.0 °F /  -8.9 °C 1017.8 in /  34462.7 hPa WSW 1.6 mph /  2.6 km/h   71 % 0.0 in /  0 mm
02:50 22.4 °F /  -5.3 °C 16.9 °F /  -8.4 °C 1017.8 in /  34462.7 hPa NNW 3.2 mph /  5.1 km/h 3.2 mph /  5.1 km/h 71 % 0.0 in /  0 mm
03:00 22.7 °F /  -5.2 °C 17.2 °F /  -8.2 °C 1017.8 in /  34462.7 hPa NNE 3.2 mph /  5.1 km/h 4.8 mph /  7.7 km/h 71 % 0.0 in /  0 mm
03:10 23.0 °F /  -5 °C 17.2 °F /  -8.2 °C 1017.8 in /  34462.7 hPa NE 1.6 mph /  2.6 km/h 4.8 mph /  7.7 km/h 70 % 0.0 in /  0 mm
03:20 23.2 °F /  -4.9 °C 17.4 °F /  -8.1 °C 1017.8 in /  34462.7 hPa NE 1.6 mph /  2.6 km/h 4.8 mph /  7.7 km/h 70 % 0.0 in /  0 mm
03:30 23.3 °F /  -4.8 °C 17.3 °F /  -8.2 °C 1017.8 in /  34462.7 hPa NE 4.8 mph /  7.7 km/h 6.4 mph /  10.3 km/h 69 % 0.0 in /  0 mm
03:40 23.7 °F /  -4.6 °C 17.9 °F /  -7.8 °C 1017.8 in /  34462.7 hPa ENE 3.2 mph /  5.1 km/h 4.8 mph /  7.7 km/h 70 % 0.0 in /  0 mm
03:50 23.7 °F /  -4.6 °C 17.9 °F /  -7.8 °C 1017.8 in /  34462.7 hPa ENE 1.6 mph /  2.6 km/h 4.8 mph /  7.7 km/h 70 % 0.0 in /  0 mm
04:00 24.2 °F /  -4.3 °C 18.2 °F /  -7.7 °C 1017.8 in /  34462.7 hPa East 4.8 mph /  7.7 km/h 4.8 mph /  7.7 km/h 69 % 0.0 in /  0 mm
04:10 23.8 °F /  -4.6 °C 18.2 °F /  -7.7 °C 1017.8 in /  34462.7 hPa ESE 4.8 mph /  7.7 km/h 6.4 mph /  10.3 km/h 71 % 0.0 in /  0 mm
04:30 24.8 °F /  -4 °C 18.7 °F /  -7.4 °C 1017.8 in /  34462.7 hPa ESE 4.8 mph /  7.7 km/h 6.4 mph /  10.3 km/h 69 % 0.0 in /  0 mm
04:40 24.9 °F /  -3.9 °C 18.8 °F /  -7.3 °C 1017.8 in /  34462.7 hPa East 3.2 mph /  5.1 km/h 4.8 mph /  7.7 km/h 69 % 0.0 in /  0 mm
04:50 25.0 °F /  -3.9 °C 18.4 °F /  -7.6 °C 1017.8 in /  34462.7 hPa ESE 3.2 mph /  5.1 km/h 6.4 mph /  10.3 km/h 67 % 0.0 in /  0 mm
05:00 25.9 °F /  -3.4 °C 19.1 °F /  -7.2 °C 1017.8 in /  34462.7 hPa SE 4.8 mph /  7.7 km/h 8.0 mph /  12.9 km/h 66 % 0.0 in /  0 mm
05:10 26.1 °F /  -3.3 °C 18.5 °F /  -7.5 °C 1017.8 in /  34462.7 hPa ESE 8.0 mph /  12.9 km/h 8.0 mph /  12.9 km/h 63 % 0.0 in /  0 mm
05:20 26.1 °F /  -3.3 °C 18.2 °F /  -7.7 °C 1017.8 in /  34462.7 hPa East 4.8 mph /  7.7 km/h 6.4 mph /  10.3 km/h 62 % 0.0 in /  0 mm
05:30 26.3 °F /  -3.2 °C 18.4 °F /  -7.6 °C 1016.8 in /  34428.8 hPa East 1.6 mph /  2.6 km/h 6.4 mph /  10.3 km/h 62 % 0.0 in /  0 mm
05:40 27.3 °F /  -2.6 °C 18.8 °F /  -7.3 °C 1017.8 in /  34462.7 hPa East 3.2 mph /  5.1 km/h 8.0 mph /  12.9 km/h 60 % 0.0 in /  0 mm
10:52 27.2 °F /  -2.7 °C 17.9 °F /  -7.8 °C 1017.8 in /  34462.7 hPa East 6.4 mph /  10.3 km/h 6.4 mph /  10.3 km/h 57 % 0.0 in /  0 mm
10:58 27.4 °F /  -2.6 °C 18.4 °F /  -7.6 °C 1017.8 in /  34462.7 hPa ENE 9.3 mph /  15 km/h 9.3 mph /  15 km/h 58 % 0.0 in /  0 mm
11:03 27.3 °F /  -2.6 °C 17.8 °F /  -7.9 °C 1017.8 in /  34462.7 hPa SSW 9.3 mph /  15 km/h 9.3 mph /  15 km/h 56 % 0.0 in /  0 mm
11:08 27.6 °F /  -2.4 °C 18.1 °F /  -7.7 °C 1017.8 in /  34462.7 hPa ENE 6.1 mph /  9.8 km/h 6.1 mph /  9.8 km/h 56 % 0.0 in /  0 mm
11:13 27.8 °F /  -2.3 °C 17.7 °F /  -7.9 °C 1017.8 in /  34462.7 hPa ENE 13.7 mph /  22 km/h 13.7 mph /  22 km/h 54 % 0.0 in /  0 mm
11:18 27.7 °F /  -2.4 °C 17.6 °F /  -8 °C 1017.8 in /  34462.7 hPa East 5.6 mph /  9 km/h 5.6 mph /  9 km/h 54 % 0.0 in /  0 mm
11:23 28.0 °F /  -2.2 °C 17.5 °F /  -8.1 °C 1017.8 in /  34462.7 hPa NE 9.3 mph /  15 km/h 9.3 mph /  15 km/h 53 % 0.0 in /  0 mm
11:28 28.2 °F /  -2.1 °C 17.7 °F /  -7.9 °C 1017.8 in /  34462.7 hPa East 11.1 mph /  17.9 km/h 11.1 mph /  17.9 km/h 53 % 0.0 in /  0 mm
11:29 28.2 °F /  -2.1 °C 17.7 °F /  -7.9 °C 1017.8 in /  34462.7 hPa ENE 11.1 mph /  17.9 km/h 11.1 mph /  17.9 km/h 53 % 0.0 in /  0 mm
11:34 28.2 °F /  -2.1 °C 17.4 °F /  -8.1 °C 1017.8 in /  34462.7 hPa ENE 11.1 mph /  17.9 km/h 11.1 mph /  17.9 km/h 52 % 0.0 in /  0 mm
11:39 28.3 °F /  -2.1 °C 17.5 °F /  -8.1 °C 1017.8 in /  34462.7 hPa ENE 12.2 mph /  19.6 km/h 12.2 mph /  19.6 km/h 52 % 0.0 in /  0 mm
11:44 28.1 °F /  -2.2 °C 17.3 °F /  -8.2 °C 1017.8 in /  34462.7 hPa SE 9.3 mph /  15 km/h 9.3 mph /  15 km/h 52 % 0.0 in /  0 mm
11:49 28.4 °F /  -2 °C 17.3 °F /  -8.2 °C 1017.8 in /  34462.7 hPa ESE 13.0 mph /  20.9 km/h 13.0 mph /  20.9 km/h 51 % 0.0 in /  0 mm
11:54 28.7 °F /  -1.8 °C 17.9 °F /  -7.8 °C 1017.8 in /  34462.7 hPa North 11.1 mph /  17.9 km/h 11.1 mph /  17.9 km/h 52 % 0.0 in /  0 mm
11:59 28.8 °F /  -1.8 °C 17.3 °F /  -8.2 °C 1017.8 in /  34462.7 hPa ESE 13.0 mph /  20.9 km/h 13.0 mph /  20.9 km/h 50 % 0.0 in /  0 mm
12:04 28.8 °F /  -1.8 °C 17.7 °F /  -7.9 °C 1017.8 in /  34462.7 hPa ENE 14.8 mph /  23.8 km/h 14.8 mph /  23.8 km/h 51 % 0.0 in /  0 mm
12:09 29.1 °F /  -1.6 °C 17.3 °F /  -8.2 °C 1017.8 in /  34462.7 hPa East 9.3 mph /  15 km/h 9.3 mph /  15 km/h 49 % 0.0 in /  0 mm
12:14 29.0 °F /  -1.7 °C 16.6 °F /  -8.6 °C 1017.8 in /  34462.7 hPa ENE 16.7 mph /  26.9 km/h 16.7 mph /  26.9 km/h 47 % 0.0 in /  0 mm
12:16 29.1 °F /  -1.6 °C 15.9 °F /  -8.9 °C 1017.8 in /  34462.7 hPa ESE 16.7 mph /  26.9 km/h 16.7 mph /  26.9 km/h 45 % 0.0 in /  0 mm
12:21 29.3 °F /  -1.5 °C 15.4 °F /  -9.2 °C 1017.8 in /  34462.7 hPa SSE 18.5 mph /  29.8 km/h 18.5 mph /  29.8 km/h 43 % 0.0 in /  0 mm
12:26 29.9 °F /  -1.2 °C 14.4 °F /  -9.8 °C 1017.8 in /  34462.7 hPa East 9.5 mph /  15.3 km/h 9.5 mph /  15.3 km/h 39 % 0.0 in /  0 mm
12:31 29.8 °F /  -1.2 °C 14.7 °F /  -9.6 °C 1017.8 in /  34462.7 hPa SE 15.8 mph /  25.4 km/h 15.8 mph /  25.4 km/h 40 % 0.0 in /  0 mm
12:36 30.0 °F /  -1.1 °C 14.9 °F /  -9.5 °C 1017.8 in /  34462.7 hPa NE 14.8 mph /  23.8 km/h 14.8 mph /  23.8 km/h 40 % 0.0 in /  0 mm
12:41 30.0 °F /  -1.1 °C 14.1 °F /  -9.9 °C 1016.8 in /  34428.8 hPa ENE 16.7 mph /  26.9 km/h 16.7 mph /  26.9 km/h 38 % 0.0 in /  0 mm
12:46 29.9 °F /  -1.2 °C 13.6 °F /  -10.2 °C 1016.8 in /  34428.8 hPa ESE 13.0 mph /  20.9 km/h 13.0 mph /  20.9 km/h 37 % 0.0 in /  0 mm
12:51 29.6 °F /  -1.3 °C 13.4 °F /  -10.3 °C 1017.8 in /  34462.7 hPa ESE 9.3 mph /  15 km/h 9.3 mph /  15 km/h 37 % 0.0 in /  0 mm
12:56 29.5 °F /  -1.4 °C 13.3 °F /  -10.4 °C 1017.8 in /  34462.7 hPa East 22.2 mph /  35.7 km/h 22.2 mph /  35.7 km/h 37 % 0.0 in /  0 mm
13:01 29.9 °F /  -1.2 °C 13.6 °F /  -10.2 °C 1017.8 in /  34462.7 hPa ENE 14.8 mph /  23.8 km/h 14.8 mph /  23.8 km/h 37 % 0.0 in /  0 mm
13:06 29.8 °F /  -1.2 °C 13.1 °F /  -10.5 °C 1017.8 in /  34462.7 hPa ESE 20.4 mph /  32.8 km/h 20.4 mph /  32.8 km/h 36 % 0.0 in /  0 mm
13:11 29.8 °F /  -1.2 °C 13.1 °F /  -10.5 °C 1017.8 in /  34462.7 hPa ESE 14.8 mph /  23.8 km/h 14.8 mph /  23.8 km/h 36 % 0.0 in /  0 mm
13:16 29.6 °F /  -1.3 °C 12.5 °F /  -10.8 °C 1017.8 in /  34462.7 hPa ESE 24.1 mph /  38.8 km/h 24.1 mph /  38.8 km/h 35 % 0.0 in /  0 mm
13:21 29.7 °F /  -1.3 °C 12.6 °F /  -10.8 °C 1017.8 in /  34462.7 hPa East 14.5 mph /  23.3 km/h 24.1 mph /  38.8 km/h 35 % 0.0 in /  0 mm
13:26 30.0 °F /  -1.1 °C 12.4 °F /  -10.9 °C 1017.8 in /  34462.7 hPa ESE 14.8 mph /  23.8 km/h 14.8 mph /  23.8 km/h 34 % 0.0 in /  0 mm
13:32 29.7 °F /  -1.3 °C 12.6 °F /  -10.8 °C 1017.8 in /  34462.7 hPa SSE 14.8 mph /  23.8 km/h 14.8 mph /  23.8 km/h 35 % 0.0 in /  0 mm
13:37 29.8 °F /  -1.2 °C 12.7 °F /  -10.7 °C 1017.8 in /  34462.7 hPa ESE 20.9 mph /  33.6 km/h 20.9 mph /  33.6 km/h 35 % 0.0 in /  0 mm
13:42 29.9 °F /  -1.2 °C 13.2 °F /  -10.4 °C 1017.8 in /  34462.7 hPa NNE 20.4 mph /  32.8 km/h 20.4 mph /  32.8 km/h 36 % 0.0 in /  0 mm
13:47 29.8 °F /  -1.2 °C 13.1 °F /  -10.5 °C 1017.8 in /  34462.7 hPa SE 25.6 mph /  41.2 km/h 25.6 mph /  41.2 km/h 36 % 0.0 in /  0 mm
13:52 29.8 °F /  -1.2 °C 13.1 °F /  -10.5 °C 1017.8 in /  34462.7 hPa SE 25.9 mph /  41.7 km/h 25.9 mph /  41.7 km/h 36 % 0.0 in /  0 mm
13:57 29.6 °F /  -1.3 °C 13.4 °F /  -10.3 °C 1017.8 in /  34462.7 hPa ESE 20.6 mph /  33.2 km/h 20.6 mph /  33.2 km/h 37 % 0.0 in /  0 mm
14:02 29.6 °F /  -1.3 °C 13.4 °F /  -10.3 °C 1017.8 in /  34462.7 hPa ENE 20.4 mph /  32.8 km/h 20.4 mph /  32.8 km/h 37 % 0.0 in /  0 mm
14:07 29.6 °F /  -1.3 °C 13.8 °F /  -10.1 °C 1017.8 in /  34462.7 hPa ESE 20.4 mph /  32.8 km/h 20.4 mph /  32.8 km/h 38 % 0.0 in /  0 mm
14:12 29.9 °F /  -1.2 °C 14.1 °F /  -9.9 °C 1017.8 in /  34462.7 hPa ESE 22.2 mph /  35.7 km/h 22.2 mph /  35.7 km/h 38 % 0.0 in /  0 mm
14:17 29.8 °F /  -1.2 °C 13.9 °F /  -10.1 °C 1017.8 in /  34462.7 hPa SE 16.9 mph /  27.2 km/h 16.9 mph /  27.2 km/h 38 % 0.0 in /  0 mm
14:22 29.8 °F /  -1.2 °C 13.9 °F /  -10.1 °C 1017.8 in /  34462.7 hPa ESE 20.4 mph /  32.8 km/h 20.4 mph /  32.8 km/h 38 % 0.0 in /  0 mm
14:27 29.6 °F /  -1.3 °C 13.8 °F /  -10.1 °C 1017.8 in /  34462.7 hPa SSE 20.4 mph /  32.8 km/h 20.4 mph /  32.8 km/h 38 % 0.0 in /  0 mm
14:32 29.8 °F /  -1.2 °C 13.9 °F /  -10.1 °C 1017.8 in /  34462.7 hPa ENE 20.4 mph /  32.8 km/h 20.4 mph /  32.8 km/h 38 % 0.0 in /  0 mm
14:37 30.1 °F /  -1.1 °C 13.8 °F /  -10.1 °C 1016.8 in /  34428.8 hPa ESE 16.7 mph /  26.9 km/h 16.7 mph /  26.9 km/h 37 % 0.0 in /  0 mm
14:42 30.2 °F /  -1 °C 13.5 °F /  -10.3 °C 1016.8 in /  34428.8 hPa SSW 13.0 mph /  20.9 km/h 13.0 mph /  20.9 km/h 36 % 0.0 in /  0 mm
14:47 30.5 °F /  -0.8 °C 13.7 °F /  -10.2 °C 1016.8 in /  34428.8 hPa ESE 14.8 mph /  23.8 km/h 14.8 mph /  23.8 km/h 36 % 0.0 in /  0 mm
14:52 30.4 °F /  -0.9 °C 13.2 °F /  -10.4 °C 1016.8 in /  34428.8 hPa SE 11.1 mph /  17.9 km/h 11.1 mph /  17.9 km/h 35 % 0.0 in /  0 mm
14:57 30.2 °F /  -1 °C 12.6 °F /  -10.8 °C 1016.8 in /  34428.8 hPa ESE 14.8 mph /  23.8 km/h 14.8 mph /  23.8 km/h 34 % 0.0 in /  0 mm
15:02 30.3 °F /  -0.9 °C 12.2 °F /  -11 °C 1016.8 in /  34428.8 hPa East 15.6 mph /  25.1 km/h 15.6 mph /  25.1 km/h 33 % 0.0 in /  0 mm
15:07 30.1 °F /  -1.1 °C 12.1 °F /  -11.1 °C 1015.8 in /  34395 hPa ESE 16.7 mph /  26.9 km/h 16.7 mph /  26.9 km/h 33 % 0.0 in /  0 mm
15:08 30.1 °F /  -1.1 °C 12.1 °F /  -11.1 °C 1015.8 in /  34395 hPa ESE 16.7 mph /  26.9 km/h 16.7 mph /  26.9 km/h 33 % 0.0 in /  0 mm
15:13 30.7 °F /  -0.7 °C 12.6 °F /  -10.8 °C 1015.8 in /  34395 hPa ENE 16.7 mph /  26.9 km/h 16.7 mph /  26.9 km/h 33 % 0.0 in /  0 mm
15:18 30.5 °F /  -0.8 °C 12.4 °F /  -10.9 °C 1015.8 in /  34395 hPa ESE 22.2 mph /  35.7 km/h 22.2 mph /  35.7 km/h 33 % 0.0 in /  0 mm
15:23 30.6 °F /  -0.8 °C 12.5 °F /  -10.8 °C 1016.8 in /  34428.8 hPa ENE 13.0 mph /  20.9 km/h 13.0 mph /  20.9 km/h 33 % 0.0 in /  0 mm
15:28 30.6 °F /  -0.8 °C 12.5 °F /  -10.8 °C 1016.8 in /  34428.8 hPa ESE 16.7 mph /  26.9 km/h 16.7 mph /  26.9 km/h 33 % 0.0 in /  0 mm
15:33 30.2 °F /  -1 °C 12.2 °F /  -11 °C 1016.8 in /  34428.8 hPa ESE 27.8 mph /  44.7 km/h 27.8 mph /  44.7 km/h 33 % 0.0 in /  0 mm
15:34 30.2 °F /  -1 °C 12.2 °F /  -11 °C 1016.8 in /  34428.8 hPa East 27.8 mph /  44.7 km/h 27.8 mph /  44.7 km/h 33 % 0.0 in /  0 mm
15:39 30.4 °F /  -0.9 °C 12.3 °F /  -10.9 °C 1016.8 in /  34428.8 hPa NNE 20.4 mph /  32.8 km/h 20.4 mph /  32.8 km/h 33 % 0.0 in /  0 mm
15:44 30.6 °F /  -0.8 °C 12.5 °F /  -10.8 °C 1016.8 in /  34428.8 hPa East 16.7 mph /  26.9 km/h 16.7 mph /  26.9 km/h 33 % 0.0 in /  0 mm
15:49 30.8 °F /  -0.7 °C 12.7 °F /  -10.7 °C 1016.8 in /  34428.8 hPa ESE 20.4 mph /  32.8 km/h 20.4 mph /  32.8 km/h 33 % 0.0 in /  0 mm
15:54 31.0 °F /  -0.6 °C 12.4 °F /  -10.9 °C 1016.8 in /  34428.8 hPa ESE 16.7 mph /  26.9 km/h 16.7 mph /  26.9 km/h 32 % 0.0 in /  0 mm
15:59 31.3 °F /  -0.4 °C 13.1 °F /  -10.5 °C 1016.8 in /  34428.8 hPa ESE 13.7 mph /  22 km/h 13.7 mph /  22 km/h 33 % 0.0 in /  0 mm
16:04 30.7 °F /  -0.7 °C 12.1 °F /  -11.1 °C 1016.8 in /  34428.8 hPa East 16.9 mph /  27.2 km/h 16.9 mph /  27.2 km/h 32 % 0.0 in /  0 mm
16:09 30.5 °F /  -0.8 °C 12.4 °F /  -10.9 °C 1015.8 in /  34395 hPa SSE 14.8 mph /  23.8 km/h 14.8 mph /  23.8 km/h 33 % 0.0 in /  0 mm
16:14 31.0 °F /  -0.6 °C 12.4 °F /  -10.9 °C 1015.8 in /  34395 hPa ESE 9.3 mph /  15 km/h 9.3 mph /  15 km/h 32 % 0.0 in /  0 mm
16:19 31.0 °F /  -0.6 °C 12.4 °F /  -10.9 °C 1015.8 in /  34395 hPa East 11.1 mph /  17.9 km/h 11.1 mph /  17.9 km/h 32 % 0.0 in /  0 mm
16:24 31.1 °F /  -0.5 °C 12.0 °F /  -11.1 °C 1015.8 in /  34395 hPa ESE 11.1 mph /  17.9 km/h 11.1 mph /  17.9 km/h 31 % 0.0 in /  0 mm
16:29 31.5 °F /  -0.3 °C 12.3 °F /  -10.9 °C 1015.8 in /  34395 hPa ESE 13.0 mph /  20.9 km/h 13.0 mph /  20.9 km/h 31 % 0.0 in /  0 mm
16:34 30.8 °F /  -0.7 °C 12.2 °F /  -11 °C 1015.8 in /  34395 hPa SE 11.1 mph /  17.9 km/h 11.1 mph /  17.9 km/h 32 % 0.0 in /  0 mm
16:40 30.7 °F /  -0.7 °C 12.2 °F /  -11 °C 1015.8 in /  34395 hPa ESE 11.3 mph /  18.2 km/h 20.9 mph /  33.6 km/h 32 % 0.0 in /  0 mm
16:45 31.0 °F /  -0.6 °C 12.3 °F /  -10.9 °C 1015.8 in /  34395 hPa ESE 9.7 mph /  15.6 km/h 12.9 mph /  20.8 km/h 32 % 0.0 in /  0 mm
16:50 31.2 °F /  -0.4 °C 12.6 °F /  -10.8 °C 1015.8 in /  34395 hPa ESE 12.6 mph /  20.3 km/h 12.6 mph /  20.3 km/h 32 % 0.0 in /  0 mm
16:55 30.4 °F /  -0.9 °C 12.3 °F /  -10.9 °C 1015.8 in /  34395 hPa ENE 14.8 mph /  23.8 km/h 14.8 mph /  23.8 km/h 33 % 0.0 in /  0 mm
17:00 30.6 °F /  -0.8 °C 12.5 °F /  -10.8 °C 1015.8 in /  34395 hPa SSE 16.7 mph /  26.9 km/h 16.7 mph /  26.9 km/h 33 % 0.0 in /  0 mm
17:05 30.3 °F /  -0.9 °C 12.2 °F /  -11 °C 1015.8 in /  34395 hPa East 20.9 mph /  33.6 km/h 20.9 mph /  33.6 km/h 33 % 0.0 in /  0 mm
17:10 30.2 °F /  -1 °C 12.2 °F /  -11 °C 1016.8 in /  34428.8 hPa ESE 16.7 mph /  26.9 km/h 16.7 mph /  26.9 km/h 33 % 0.0 in /  0 mm
17:15 30.5 °F /  -0.8 °C 11.9 °F /  -11.2 °C 1016.8 in /  34428.8 hPa ESE 16.9 mph /  27.2 km/h 16.9 mph /  27.2 km/h 32 % 0.0 in /  0 mm
17:20 30.3 °F /  -0.9 °C 12.3 °F /  -10.9 °C 1016.8 in /  34428.8 hPa ESE 14.5 mph /  23.3 km/h 16.1 mph /  25.9 km/h 33 % 0.0 in /  0 mm
17:25 30.1 °F /  -1.1 °C 12.1 °F /  -11.1 °C 1015.8 in /  34395 hPa East 14.8 mph /  23.8 km/h 14.8 mph /  23.8 km/h 33 % 0.0 in /  0 mm
17:30 30.0 °F /  -1.1 °C 11.9 °F /  -11.2 °C 1015.8 in /  34395 hPa ESE 18.5 mph /  29.8 km/h 18.5 mph /  29.8 km/h 33 % 0.0 in /  0 mm
17:35 29.8 °F /  -1.2 °C 11.8 °F /  -11.2 °C 1015.8 in /  34395 hPa East 12.9 mph /  20.8 km/h 19.3 mph /  31.1 km/h 33 % 0.0 in /  0 mm
17:40 30.0 °F /  -1.1 °C 11.9 °F /  -11.2 °C 1014.8 in /  34361.1 hPa ESE 11.3 mph /  18.2 km/h 19.3 mph /  31.1 km/h 33 % 0.0 in /  0 mm
17:45 29.8 °F /  -1.2 °C 12.2 °F /  -11 °C 1014.8 in /  34361.1 hPa ESE 20.4 mph /  32.8 km/h 20.4 mph /  32.8 km/h 34 % 0.0 in /  0 mm
17:50 29.8 °F /  -1.2 °C 12.2 °F /  -11 °C 1014.8 in /  34361.1 hPa ENE 15.8 mph /  25.4 km/h 15.8 mph /  25.4 km/h 34 % 0.0 in /  0 mm
17:55 29.7 °F /  -1.3 °C 12.6 °F /  -10.8 °C 1015.8 in /  34395 hPa NE 16.7 mph /  26.9 km/h 16.7 mph /  26.9 km/h 35 % 0.0 in /  0 mm
18:00 29.6 °F /  -1.3 °C 12.5 °F /  -10.8 °C 1015.8 in /  34395 hPa SE 16.7 mph /  26.9 km/h 16.7 mph /  26.9 km/h 35 % 0.0 in /  0 mm
18:05 29.5 °F /  -1.4 °C 12.4 °F /  -10.9 °C 1015.8 in /  34395 hPa ESE 16.7 mph /  26.9 km/h 16.7 mph /  26.9 km/h 35 % 0.0 in /  0 mm
18:10 29.4 °F /  -1.4 °C 12.3 °F /  -10.9 °C 1014.8 in /  34361.1 hPa ESE 12.9 mph /  20.8 km/h 16.1 mph /  25.9 km/h 35 % 0.0 in /  0 mm
18:15 29.5 °F /  -1.4 °C 12.4 °F /  -10.9 °C 1014.8 in /  34361.1 hPa East 9.7 mph /  15.6 km/h 16.1 mph /  25.9 km/h 35 % 0.0 in /  0 mm
18:20 29.4 °F /  -1.4 °C 12.3 °F /  -10.9 °C 1014.8 in /  34361.1 hPa ESE 9.7 mph /  15.6 km/h 17.7 mph /  28.5 km/h 35 % 0.0 in /  0 mm
18:25 29.4 °F /  -1.4 °C 12.3 °F /  -10.9 °C 1015.8 in /  34395 hPa ESE 12.9 mph /  20.8 km/h 19.3 mph /  31.1 km/h 35 % 0.0 in /  0 mm
18:30 29.1 °F /  -1.6 °C 12.1 °F /  -11.1 °C 1015.8 in /  34395 hPa East 16.7 mph /  26.9 km/h 16.7 mph /  26.9 km/h 35 % 0.0 in /  0 mm
18:35 29.0 °F /  -1.7 °C 12.0 °F /  -11.1 °C 1015.8 in /  34395 hPa ESE 13.0 mph /  20.9 km/h 13.0 mph /  20.9 km/h 35 % 0.0 in /  0 mm
18:40 28.9 °F /  -1.7 °C 12.3 °F /  -10.9 °C 1015.8 in /  34395 hPa SE 13.0 mph /  20.9 km/h 13.0 mph /  20.9 km/h 36 % 0.0 in /  0 mm
18:45 28.9 °F /  -1.7 °C 12.3 °F /  -10.9 °C 1015.8 in /  34395 hPa East 14.8 mph /  23.8 km/h 14.8 mph /  23.8 km/h 36 % 0.0 in /  0 mm
18:50 29.0 °F /  -1.7 °C 12.0 °F /  -11.1 °C 1015.8 in /  34395 hPa SE 9.5 mph /  15.3 km/h 9.5 mph /  15.3 km/h 35 % 0.0 in /  0 mm
18:55 28.7 °F /  -1.8 °C 11.7 °F /  -11.3 °C 1015.8 in /  34395 hPa ESE 11.3 mph /  18.2 km/h 16.1 mph /  25.9 km/h 35 % 0.0 in /  0 mm
19:00 28.6 °F /  -1.9 °C 12.1 °F /  -11.1 °C 1015.8 in /  34395 hPa ESE 9.7 mph /  15.6 km/h 16.1 mph /  25.9 km/h 36 % 0.0 in /  0 mm
19:05 28.5 °F /  -1.9 °C 11.6 °F /  -11.3 °C 1015.8 in /  34395 hPa ESE 9.7 mph /  15.6 km/h 16.1 mph /  25.9 km/h 35 % 0.0 in /  0 mm
19:10 28.5 °F /  -1.9 °C 11.6 °F /  -11.3 °C 1015.8 in /  34395 hPa ESE 9.7 mph /  15.6 km/h 12.9 mph /  20.8 km/h 35 % 0.0 in /  0 mm
19:15 28.7 °F /  -1.8 °C 11.7 °F /  -11.3 °C 1015.8 in /  34395 hPa ESE 8.0 mph /  12.9 km/h 12.9 mph /  20.8 km/h 35 % 0.0 in /  0 mm
19:20 28.8 °F /  -1.8 °C 11.8 °F /  -11.2 °C 1015.8 in /  34395 hPa ESE 8.7 mph /  14 km/h 8.7 mph /  14 km/h 35 % 0.0 in /  0 mm
19:25 28.6 °F /  -1.9 °C 11.6 °F /  -11.3 °C 1014.8 in /  34361.1 hPa ESE 11.1 mph /  17.9 km/h 11.1 mph /  17.9 km/h 35 % 0.0 in /  0 mm
19:30 28.4 °F /  -2 °C 11.9 °F /  -11.2 °C 1014.8 in /  34361.1 hPa SSE 13.0 mph /  20.9 km/h 13.0 mph /  20.9 km/h 36 % 0.0 in /  0 mm
19:35 28.3 °F /  -2.1 °C 11.8 °F /  -11.2 °C 1014.8 in /  34361.1 hPa ENE 16.7 mph /  26.9 km/h 16.7 mph /  26.9 km/h 36 % 0.0 in /  0 mm
19:40 28.3 °F /  -2.1 °C 12.2 °F /  -11 °C 1015.8 in /  34395 hPa ESE 9.5 mph /  15.3 km/h 9.5 mph /  15.3 km/h 37 % 0.0 in /  0 mm
19:45 28.2 °F /  -2.1 °C 12.1 °F /  -11.1 °C 1015.8 in /  34395 hPa ESE 11.1 mph /  17.9 km/h 11.1 mph /  17.9 km/h 37 % 0.0 in /  0 mm
19:50 28.3 °F /  -2.1 °C 12.2 °F /  -11 °C 1015.8 in /  34395 hPa South 9.3 mph /  15 km/h 9.3 mph /  15 km/h 37 % 0.0 in /  0 mm
19:55 28.3 °F /  -2.1 °C 11.8 °F /  -11.2 °C 1015.8 in /  34395 hPa South 7.4 mph /  11.9 km/h 7.4 mph /  11.9 km/h 36 % 0.0 in /  0 mm
20:00 28.2 °F /  -2.1 °C 12.1 °F /  -11.1 °C 1015.8 in /  34395 hPa SSW 3.7 mph /  6 km/h 6.4 mph /  10.3 km/h 37 % 0.0 in /  0 mm
20:05 27.8 °F /  -2.3 °C 12.2 °F /  -11 °C 1015.8 in /  34395 hPa SE 11.3 mph /  18.2 km/h 11.3 mph /  18.2 km/h 38 % 0.0 in /  0 mm
20:10 27.5 °F /  -2.5 °C 11.9 °F /  -11.2 °C 1015.8 in /  34395 hPa East 9.3 mph /  15 km/h 9.3 mph /  15 km/h 38 % 0.0 in /  0 mm
20:15 27.3 °F /  -2.6 °C 12.1 °F /  -11.1 °C 1015.8 in /  34395 hPa East 10.3 mph /  16.6 km/h 10.3 mph /  16.6 km/h 39 % 0.0 in /  0 mm
20:20 27.1 °F /  -2.7 °C 12.3 °F /  -10.9 °C 1015.8 in /  34395 hPa ESE 10.0 mph /  16.1 km/h 10.0 mph /  16.1 km/h 40 % 0.0 in /  0 mm
20:25 26.9 °F /  -2.8 °C 12.9 °F /  -10.6 °C 1015.8 in /  34395 hPa ESE 11.1 mph /  17.9 km/h 11.1 mph /  17.9 km/h 42 % 0.0 in /  0 mm
20:30 26.7 °F /  -2.9 °C 13.1 °F /  -10.5 °C 1015.8 in /  34395 hPa East 11.1 mph /  17.9 km/h 11.1 mph /  17.9 km/h 43 % 0.0 in /  0 mm
20:35 26.5 °F /  -3.1 °C 12.9 °F /  -10.6 °C 1015.8 in /  34395 hPa ESE 9.3 mph /  15 km/h 9.3 mph /  15 km/h 43 % 0.0 in /  0 mm
20:40 26.4 °F /  -3.1 °C 13.5 °F /  -10.3 °C 1014.8 in /  34361.1 hPa ESE 4.8 mph /  7.7 km/h 11.3 mph /  18.2 km/h 45 % 0.0 in /  0 mm
20:45 26.2 °F /  -3.2 °C 13.7 °F /  -10.2 °C 1014.8 in /  34361.1 hPa SE 9.3 mph /  15 km/h 9.3 mph /  15 km/h 46 % 0.0 in /  0 mm
20:50 26.0 °F /  -3.3 °C 14.1 °F /  -9.9 °C 1014.8 in /  34361.1 hPa ESE 9.3 mph /  15 km/h 9.3 mph /  15 km/h 48 % 0.0 in /  0 mm
20:55 25.8 °F /  -3.4 °C 14.3 °F /  -9.8 °C 1015.8 in /  34395 hPa East 13.0 mph /  20.9 km/h 13.0 mph /  20.9 km/h 49 % 0.0 in /  0 mm
21:00 25.7 °F /  -3.5 °C 14.5 °F /  -9.7 °C 1015.8 in /  34395 hPa ENE 9.3 mph /  15 km/h 9.3 mph /  15 km/h 50 % 0.0 in /  0 mm
21:05 25.6 °F /  -3.6 °C 14.7 °F /  -9.6 °C 1015.8 in /  34395 hPa ENE 9.3 mph /  15 km/h 9.3 mph /  15 km/h 51 % 0.0 in /  0 mm
21:10 25.5 °F /  -3.6 °C 14.6 °F /  -9.7 °C 1015.8 in /  34395 hPa ESE 5.6 mph /  9 km/h 5.6 mph /  9 km/h 51 % 0.0 in /  0 mm
21:15 25.4 °F /  -3.7 °C 14.8 °F /  -9.6 °C 1015.8 in /  34395 hPa ESE 4.2 mph /  6.8 km/h 4.2 mph /  6.8 km/h 52 % 0.0 in /  0 mm
21:20 25.3 °F /  -3.7 °C 15.1 °F /  -9.4 °C 1015.8 in /  34395 hPa ENE 5.3 mph /  8.5 km/h 5.8 mph /  9.3 km/h 53 % 0.0 in /  0 mm
21:25 25.2 °F /  -3.8 °C 14.9 °F /  -9.5 °C 1015.8 in /  34395 hPa East 7.4 mph /  11.9 km/h 7.4 mph /  11.9 km/h 53 % 0.0 in /  0 mm
21:30 25.1 °F /  -3.8 °C 14.8 °F /  -9.6 °C 1015.8 in /  34395 hPa East 3.2 mph /  5.1 km/h 8.0 mph /  12.9 km/h 53 % 0.0 in /  0 mm
21:35 25.0 °F /  -3.9 °C 15.1 °F /  -9.4 °C 1015.8 in /  34395 hPa ESE 5.6 mph /  9 km/h 5.6 mph /  9 km/h 54 % 0.0 in /  0 mm
21:40 24.9 °F /  -3.9 °C 15.5 °F /  -9.2 °C 1016.8 in /  34428.8 hPa ENE 7.4 mph /  11.9 km/h 7.4 mph /  11.9 km/h 56 % 0.0 in /  0 mm
21:45 24.7 °F /  -4.1 °C 15.9 °F /  -8.9 °C 1016.8 in /  34428.8 hPa East 7.4 mph /  11.9 km/h 7.4 mph /  11.9 km/h 58 % 0.0 in /  0 mm
21:50 22.0 °F /  -5.6 °C 16.5 °F /  -8.6 °C 1015.8 in /  34395 hPa Calm     71 % 0.0 in /  0 mm
21:51 24.7 °F /  -4.1 °C 16.2 °F /  -8.8 °C 1016.8 in /  34428.8 hPa ESE 7.4 mph /  11.9 km/h 7.4 mph /  11.9 km/h 59 % 0.0 in /  0 mm
21:56 24.6 °F /  -4.1 °C 15.8 °F /  -9 °C 1016.8 in /  34428.8 hPa ESE 5.6 mph /  9 km/h 5.6 mph /  9 km/h 58 % 0.0 in /  0 mm
22:00 21.9 °F /  -5.6 °C 16.6 °F /  -8.6 °C 1015.8 in /  34395 hPa Calm     72 % 0.0 in /  0 mm
22:01 24.6 °F /  -4.1 °C 16.3 °F /  -8.7 °C 1016.8 in /  34428.8 hPa ENE 5.8 mph /  9.3 km/h 5.8 mph /  9.3 km/h 60 % 0.0 in /  0 mm
22:06 24.5 °F /  -4.2 °C 16.2 °F /  -8.8 °C 1016.8 in /  34428.8 hPa ESE 5.8 mph /  9.3 km/h 5.8 mph /  9.3 km/h 60 % 0.0 in /  0 mm
22:10 21.9 °F /  -5.6 °C 16.6 °F /  -8.6 °C 1015.8 in /  34395 hPa Calm     72 % 0.0 in /  0 mm
22:11 24.4 °F /  -4.2 °C 16.1 °F /  -8.8 °C 1016.8 in /  34428.8 hPa East 7.4 mph /  11.9 km/h 7.4 mph /  11.9 km/h 60 % 0.0 in /  0 mm
22:17 24.4 °F /  -4.2 °C 16.1 °F /  -8.8 °C 1016.8 in /  34428.8 hPa SE 7.4 mph /  11.9 km/h 7.4 mph /  11.9 km/h 60 % 0.0 in /  0 mm
22:20 21.9 °F /  -5.6 °C 16.6 °F /  -8.6 °C 1015.8 in /  34395 hPa Calm     72 % 0.0 in /  0 mm
22:22 24.3 °F /  -4.3 °C 16.3 °F /  -8.7 °C 1016.8 in /  34428.8 hPa SE 7.4 mph /  11.9 km/h 7.4 mph /  11.9 km/h 61 % 0.0 in /  0 mm
22:27 24.2 °F /  -4.3 °C 15.9 °F /  -8.9 °C 1016.8 in /  34428.8 hPa SW 3.9 mph /  6.3 km/h   60 % 0.0 in /  0 mm
22:30 21.8 °F /  -5.7 °C 16.5 °F /  -8.6 °C 1014.8 in /  34361.1 hPa Calm     72 % 0.0 in /  0 mm
22:33 24.2 °F /  -4.3 °C 15.7 °F /  -9.1 °C 1016.8 in /  34428.8 hPa SW 2.3 mph /  3.7 km/h   59 % 0.0 in /  0 mm
22:37 24.1 °F /  -4.4 °C 15.8 °F /  -9 °C 1017.8 in /  34462.7 hPa SW 1.9 mph /  3.1 km/h   60 % 0.0 in /  0 mm
22:40 21.7 °F /  -5.7 °C 16.7 °F /  -8.5 °C 1015.8 in /  34395 hPa Calm     73 % 0.0 in /  0 mm
22:43 24.0 °F /  -4.4 °C 15.8 °F /  -9 °C 1017.8 in /  34462.7 hPa Calm     60 % 0.0 in /  0 mm
22:47 24.0 °F /  -4.4 °C 15.8 °F /  -9 °C 1017.8 in /  34462.7 hPa Calm     60 % 0.0 in /  0 mm
22:50 21.7 °F /  -5.7 °C 16.7 °F /  -8.5 °C 1015.8 in /  34395 hPa Calm     73 % 0.0 in /  0 mm
22:53 24.0 °F /  -4.4 °C 16.0 °F /  -8.9 °C 1016.8 in /  34428.8 hPa ENE 3.7 mph /  6 km/h 3.7 mph /  6 km/h 61 % 0.0 in /  0 mm
22:58 23.9 °F /  -4.5 °C 16.2 °F /  -8.8 °C 1016.8 in /  34428.8 hPa WNW 1.9 mph /  3.1 km/h   62 % 0.0 in /  0 mm
23:00 21.5 °F /  -5.8 °C 16.4 °F /  -8.7 °C 1015.8 in /  34395 hPa Calm     73 % 0.0 in /  0 mm
23:03 23.9 °F /  -4.5 °C 16.2 °F /  -8.8 °C 1016.8 in /  34428.8 hPa NE 2.3 mph /  3.7 km/h 2.3 mph /  3.7 km/h 62 % 0.0 in /  0 mm
23:08 23.9 °F /  -4.5 °C 16.2 °F /  -8.8 °C 1016.8 in /  34428.8 hPa NNE 1.9 mph /  3.1 km/h 2.3 mph /  3.7 km/h 62 % 0.0 in /  0 mm
23:10 21.5 °F /  -5.8 °C 16.4 °F /  -8.7 °C 1015.8 in /  34395 hPa Calm   1.6 mph /  2.6 km/h 73 % 0.0 in /  0 mm
23:13 23.9 °F /  -4.5 °C 16.4 °F /  -8.7 °C 1016.8 in /  34428.8 hPa NE 3.7 mph /  6 km/h 3.7 mph /  6 km/h 63 % 0.0 in /  0 mm
23:18 23.8 °F /  -4.6 °C 16.3 °F /  -8.7 °C 1016.8 in /  34428.8 hPa Calm     63 % 0.0 in /  0 mm
23:20 21.4 °F /  -5.9 °C 16.6 °F /  -8.6 °C 1015.8 in /  34395 hPa Calm     74 % 0.0 in /  0 mm
23:23 23.8 °F /  -4.6 °C 16.3 °F /  -8.7 °C 1016.8 in /  34428.8 hPa NE 3.7 mph /  6 km/h 3.7 mph /  6 km/h 63 % 0.0 in /  0 mm
23:28 23.8 °F /  -4.6 °C 16.3 °F /  -8.7 °C 1016.8 in /  34428.8 hPa NNE 1.9 mph /  3.1 km/h 1.9 mph /  3.1 km/h 63 % 0.0 in /  0 mm
23:30 21.3 °F /  -5.9 °C 16.5 °F /  -8.6 °C 1015.8 in /  34395 hPa Calm     74 % 0.0 in /  0 mm
23:33 23.7 °F /  -4.6 °C 16.2 °F /  -8.8 °C 1016.8 in /  34428.8 hPa NNE 3.7 mph /  6 km/h 3.7 mph /  6 km/h 63 % 0.0 in /  0 mm
23:38 23.7 °F /  -4.6 °C 16.2 °F /  -8.8 °C 1015.8 in /  34395 hPa NNE 3.7 mph /  6 km/h   63 % 0.0 in /  0 mm
23:40 21.2 °F /  -6 °C 16.4 °F /  -8.7 °C 1015.8 in /  34395 hPa Calm     74 % 0.0 in /  0 mm
23:44 23.6 °F /  -4.7 °C 16.2 °F /  -8.8 °C 1015.8 in /  34395 hPa NNE 1.9 mph /  3.1 km/h   63 % 0.0 in /  0 mm
23:49 23.5 °F /  -4.7 °C 16.1 °F /  -8.8 °C 1015.8 in /  34395 hPa NNE 3.9 mph /  6.3 km/h 3.9 mph /  6.3 km/h 63 % 0.0 in /  0 mm
23:50 21.0 °F /  -6.1 °C 16.2 °F /  -8.8 °C 1015.8 in /  34395 hPa Calm     74 % 0.0 in /  0 mm
23:54 23.4 °F /  -4.8 °C 16.2 °F /  -8.8 °C 1015.8 in /  34395 hPa ENE 3.7 mph /  6 km/h 3.7 mph /  6 km/h 64 % 0.0 in /  0 mm
23:59 23.4 °F /  -4.8 °C 16.2 °F /  -8.8 °C 1015.8 in /  34395 hPa NNE 3.7 mph /  6 km/h 3.7 mph /  6 km/h 64 % 0.0 in /  0 mm
Meteo Sesrovires
Elogis d' Weather Underground - 3.5 mb

Guio original per  Jim McMurry - jmcmurry@mwt.net Adaptat per a la plantilla per  Wim van der Kuil - Leuven-Template.eu

Trobareu la nostra informacio del temps tambe a:

Weather Underground

AWEKAS